sensor_id;sensor_type;location;lat;lon;timestamp;pressure;altitude;pressure_sealevel;temperature;humidity
46682;BME280;34101;53.430;-2.224;2023-05-14T00:02:21;101970.37;;;14.23;66.91
46682;BME280;34101;53.430;-2.224;2023-05-14T00:04:49;101969.65;;;14.23;66.98
46682;BME280;34101;53.430;-2.224;2023-05-14T00:07:17;101968.36;;;14.22;66.95
46682;BME280;34101;53.430;-2.224;2023-05-14T00:09:44;101965.05;;;14.19;67.04
46682;BME280;34101;53.430;-2.224;2023-05-14T00:12:11;101960.31;;;14.14;67.04
46682;BME280;34101;53.430;-2.224;2023-05-14T00:14:39;101958.27;;;14.07;67.48
46682;BME280;34101;53.430;-2.224;2023-05-14T00:17:07;101959.31;;;14.08;67.48
46682;BME280;34101;53.430;-2.224;2023-05-14T00:19:34;101950.50;;;14.11;67.35
46682;BME280;34101;53.430;-2.224;2023-05-14T00:22:01;101947.19;;;14.02;67.36
46682;BME280;34101;53.430;-2.224;2023-05-14T00:24:29;101944.39;;;13.92;67.91
46682;BME280;34101;53.430;-2.224;2023-05-14T00:26:56;101941.29;;;13.94;67.96
46682;BME280;34101;53.430;-2.224;2023-05-14T00:29:24;101938.64;;;13.89;67.97
46682;BME280;34101;53.430;-2.224;2023-05-14T00:31:52;101936.13;;;13.87;68.20
46682;BME280;34101;53.430;-2.224;2023-05-14T00:34:19;101932.85;;;13.90;68.01
46682;BME280;34101;53.430;-2.224;2023-05-14T00:36:47;101923.43;;;13.89;67.97
46682;BME280;34101;53.430;-2.224;2023-05-14T00:39:15;101921.73;;;13.84;68.18
46682;BME280;34101;53.430;-2.224;2023-05-14T00:41:42;101917.44;;;13.83;68.27
46682;BME280;34101;53.430;-2.224;2023-05-14T00:44:10;101913.18;;;13.83;68.29
46682;BME280;34101;53.430;-2.224;2023-05-14T00:46:38;101905.43;;;13.80;68.41
46682;BME280;34101;53.430;-2.224;2023-05-14T00:49:06;101908.76;;;13.78;68.55
46682;BME280;34101;53.430;-2.224;2023-05-14T00:51:34;101906.04;;;13.78;68.26
46682;BME280;34101;53.430;-2.224;2023-05-14T00:54:01;101903.48;;;13.77;68.60
46682;BME280;34101;53.430;-2.224;2023-05-14T00:56:29;101903.53;;;13.77;68.38
46682;BME280;34101;53.430;-2.224;2023-05-14T00:58:57;101901.75;;;13.74;68.41
46682;BME280;34101;53.430;-2.224;2023-05-14T01:01:25;101902.38;;;13.71;68.52
46682;BME280;34101;53.430;-2.224;2023-05-14T01:03:52;101899.73;;;13.67;68.41
46682;BME280;34101;53.430;-2.224;2023-05-14T01:06:27;101896.43;;;13.61;68.67
46682;BME280;34101;53.430;-2.224;2023-05-14T01:09:04;101891.68;;;13.58;68.73
46682;BME280;34101;53.430;-2.224;2023-05-14T01:11:41;101886.75;;;13.56;68.84
46682;BME280;34101;53.430;-2.224;2023-05-14T01:14:18;101881.01;;;13.58;68.83
46682;BME280;34101;53.430;-2.224;2023-05-14T01:16:47;101879.14;;;13.58;68.77
46682;BME280;34101;53.430;-2.224;2023-05-14T01:19:28;101873.06;;;13.58;68.65
46682;BME280;34101;53.430;-2.224;2023-05-14T01:21:56;101874.84;;;13.56;68.46
46682;BME280;34101;53.430;-2.224;2023-05-14T01:24:24;101873.66;;;13.51;68.71
46682;BME280;34101;53.430;-2.224;2023-05-14T01:26:51;101864.98;;;13.52;68.43
46682;BME280;34101;53.430;-2.224;2023-05-14T01:29:21;101863.37;;;13.50;68.49
46682;BME280;34101;53.430;-2.224;2023-05-14T01:31:52;101862.49;;;13.46;68.50
46682;BME280;34101;53.430;-2.224;2023-05-14T01:34:23;101863.61;;;13.45;68.66
46682;BME280;34101;53.430;-2.224;2023-05-14T01:36:52;101862.99;;;13.45;68.58
46682;BME280;34101;53.430;-2.224;2023-05-14T01:39:22;101865.66;;;13.44;68.53
46682;BME280;34101;53.430;-2.224;2023-05-14T01:41:50;101864.34;;;13.44;68.51
46682;BME280;34101;53.430;-2.224;2023-05-14T01:44:18;101867.26;;;13.43;68.20
46682;BME280;34101;53.430;-2.224;2023-05-14T01:46:46;101861.01;;;13.32;68.84
46682;BME280;34101;53.430;-2.224;2023-05-14T01:49:19;101860.30;;;13.29;68.76
46682;BME280;34101;53.430;-2.224;2023-05-14T01:51:52;101859.96;;;13.26;68.78
46682;BME280;34101;53.430;-2.224;2023-05-14T01:54:19;101861.40;;;13.19;68.88
46682;BME280;34101;53.430;-2.224;2023-05-14T01:56:48;101861.01;;;13.13;69.25
46682;BME280;34101;53.430;-2.224;2023-05-14T01:59:16;101858.46;;;13.15;69.13
46682;BME280;34101;53.430;-2.224;2023-05-14T02:02:37;101854.51;;;13.15;69.01
46682;BME280;34101;53.430;-2.224;2023-05-14T02:05:05;101850.97;;;13.13;69.02
46682;BME280;34101;53.430;-2.224;2023-05-14T02:07:32;101850.30;;;13.11;68.97
46682;BME280;34101;53.430;-2.224;2023-05-14T02:10:09;101850.70;;;13.11;69.02
46682;BME280;34101;53.430;-2.224;2023-05-14T02:12:37;101847.79;;;13.11;68.97
46682;BME280;34101;53.430;-2.224;2023-05-14T02:15:05;101848.78;;;13.03;69.16
46682;BME280;34101;53.430;-2.224;2023-05-14T02:17:33;101846.74;;;13.01;69.31
46682;BME280;34101;53.430;-2.224;2023-05-14T02:20:01;101839.80;;;12.98;69.29
46682;BME280;34101;53.430;-2.224;2023-05-14T02:22:28;101835.79;;;12.94;69.28
46682;BME280;34101;53.430;-2.224;2023-05-14T02:25:00;101831.84;;;12.90;69.22
46682;BME280;34101;53.430;-2.224;2023-05-14T02:27:27;101826.25;;;12.85;69.41
46682;BME280;34101;53.430;-2.224;2023-05-14T02:29:55;101825.95;;;12.82;69.48
46682;BME280;34101;53.430;-2.224;2023-05-14T02:32:22;101822.80;;;12.78;69.52
46682;BME280;34101;53.430;-2.224;2023-05-14T02:34:49;101816.08;;;12.76;69.63
46682;BME280;34101;53.430;-2.224;2023-05-14T02:37:16;101815.81;;;12.74;69.63
46682;BME280;34101;53.430;-2.224;2023-05-14T02:39:43;101816.56;;;12.70;69.62
46682;BME280;34101;53.430;-2.224;2023-05-14T02:42:11;101814.32;;;12.70;69.71
46682;BME280;34101;53.430;-2.224;2023-05-14T02:44:38;101816.24;;;12.69;69.73
46682;BME280;34101;53.430;-2.224;2023-05-14T02:47:05;101816.41;;;12.68;69.68
46682;BME280;34101;53.430;-2.224;2023-05-14T02:49:32;101813.65;;;12.67;69.76
46682;BME280;34101;53.430;-2.224;2023-05-14T02:52:00;101810.72;;;12.63;69.75
46682;BME280;34101;53.430;-2.224;2023-05-14T02:54:27;101811.04;;;12.63;69.89
46682;BME280;34101;53.430;-2.224;2023-05-14T02:56:54;101807.80;;;12.63;69.88
46682;BME280;34101;53.430;-2.224;2023-05-14T02:59:22;101804.30;;;12.62;69.79
46682;BME280;34101;53.430;-2.224;2023-05-14T03:01:50;101807.21;;;12.59;69.87
46682;BME280;34101;53.430;-2.224;2023-05-14T03:04:17;101804.95;;;12.54;69.94
46682;BME280;34101;53.430;-2.224;2023-05-14T03:06:44;101794.95;;;12.51;69.97
46682;BME280;34101;53.430;-2.224;2023-05-14T03:09:11;101790.27;;;12.45;70.26
46682;BME280;34101;53.430;-2.224;2023-05-14T03:11:39;101787.99;;;12.39;70.40
46682;BME280;34101;53.430;-2.224;2023-05-14T03:14:06;101785.95;;;12.36;70.55
46682;BME280;34101;53.430;-2.224;2023-05-14T03:16:33;101784.88;;;12.33;70.74
46682;BME280;34101;53.430;-2.224;2023-05-14T03:19:01;101787.02;;;12.32;70.73
46682;BME280;34101;53.430;-2.224;2023-05-14T03:21:28;101785.13;;;12.33;70.52
46682;BME280;34101;53.430;-2.224;2023-05-14T03:23:55;101790.15;;;12.30;70.56
46682;BME280;34101;53.430;-2.224;2023-05-14T03:26:22;101788.58;;;12.31;70.70
46682;BME280;34101;53.430;-2.224;2023-05-14T03:28:50;101784.83;;;12.27;70.66
46682;BME280;34101;53.430;-2.224;2023-05-14T03:31:17;101787.02;;;12.25;70.66
46682;BME280;34101;53.430;-2.224;2023-05-14T03:33:44;101782.64;;;12.19;70.65
46682;BME280;34101;53.430;-2.224;2023-05-14T03:36:12;101776.29;;;12.20;70.87
46682;BME280;34101;53.430;-2.224;2023-05-14T03:38:39;101771.25;;;12.22;70.73
46682;BME280;34101;53.430;-2.224;2023-05-14T03:41:08;101766.69;;;12.20;70.77
46682;BME280;34101;53.430;-2.224;2023-05-14T03:43:35;101764.60;;;12.22;70.68
46682;BME280;34101;53.430;-2.224;2023-05-14T03:46:02;101761.57;;;12.23;70.58
46682;BME280;34101;53.430;-2.224;2023-05-14T03:48:30;101760.08;;;12.24;70.44
46682;BME280;34101;53.430;-2.224;2023-05-14T03:50:57;101754.93;;;12.22;70.27
46682;BME280;34101;53.430;-2.224;2023-05-14T03:53:25;101754.36;;;12.20;70.36
46682;BME280;34101;53.430;-2.224;2023-05-14T03:55:52;101748.84;;;12.16;70.43
46682;BME280;34101;53.430;-2.224;2023-05-14T03:58:19;101749.78;;;12.15;70.48
46682;BME280;34101;53.430;-2.224;2023-05-14T04:00:47;101751.40;;;12.15;70.41
46682;BME280;34101;53.430;-2.224;2023-05-14T04:03:14;101752.17;;;12.14;70.34
46682;BME280;34101;53.430;-2.224;2023-05-14T04:05:41;101749.63;;;12.13;70.33
46682;BME280;34101;53.430;-2.224;2023-05-14T04:08:08;101752.51;;;12.08;70.31
46682;BME280;34101;53.430;-2.224;2023-05-14T04:10:35;101751.72;;;12.06;70.42
46682;BME280;34101;53.430;-2.224;2023-05-14T04:13:03;101754.70;;;12.06;70.45
46682;BME280;34101;53.430;-2.224;2023-05-14T04:15:30;101751.97;;;12.07;70.37
46682;BME280;34101;53.430;-2.224;2023-05-14T04:17:58;101750.50;;;12.06;70.45
46682;BME280;34101;53.430;-2.224;2023-05-14T04:20:25;101749.95;;;12.03;70.32
46682;BME280;34101;53.430;-2.224;2023-05-14T04:22:53;101748.78;;;11.99;70.61
46682;BME280;34101;53.430;-2.224;2023-05-14T04:25:21;101748.26;;;12.00;70.54
46682;BME280;34101;53.430;-2.224;2023-05-14T04:27:48;101749.45;;;11.99;70.37
46682;BME280;34101;53.430;-2.224;2023-05-14T04:30:16;101749.05;;;12.00;70.42
46682;BME280;34101;53.430;-2.224;2023-05-14T04:32:43;101749.08;;;11.99;70.38
46682;BME280;34101;53.430;-2.224;2023-05-14T04:35:10;101749.42;;;11.95;70.54
46682;BME280;34101;53.430;-2.224;2023-05-14T04:37:38;101746.07;;;11.96;70.44
46682;BME280;34101;53.430;-2.224;2023-05-14T04:40:07;101745.57;;;11.97;70.46
46682;BME280;34101;53.430;-2.224;2023-05-14T04:42:34;101749.15;;;11.93;70.43
46682;BME280;34101;53.430;-2.224;2023-05-14T04:45:02;101749.89;;;11.93;70.69
46682;BME280;34101;53.430;-2.224;2023-05-14T04:47:29;101742.96;;;11.97;70.61
46682;BME280;34101;53.430;-2.224;2023-05-14T04:49:58;101746.07;;;12.02;70.37
46682;BME280;34101;53.430;-2.224;2023-05-14T04:52:25;101747.29;;;12.03;70.38
46682;BME280;34101;53.430;-2.224;2023-05-14T04:54:53;101746.60;;;12.08;70.27
46682;BME280;34101;53.430;-2.224;2023-05-14T04:57:21;101742.39;;;12.08;70.49
46682;BME280;34101;53.430;-2.224;2023-05-14T04:59:48;101741.25;;;12.11;70.45
46682;BME280;34101;53.430;-2.224;2023-05-14T05:02:15;101740.30;;;12.15;70.42
46682;BME280;34101;53.430;-2.224;2023-05-14T05:04:43;101738.36;;;12.19;70.36
46682;BME280;34101;53.430;-2.224;2023-05-14T05:07:10;101736.30;;;12.26;70.25
46682;BME280;34101;53.430;-2.224;2023-05-14T05:09:42;101734.23;;;12.32;70.00
46682;BME280;34101;53.430;-2.224;2023-05-14T05:12:10;101730.72;;;12.33;70.01
46682;BME280;34101;53.430;-2.224;2023-05-14T05:14:37;101732.97;;;12.39;69.95
46682;BME280;34101;53.430;-2.224;2023-05-14T05:17:05;101733.59;;;12.47;69.65
46682;BME280;34101;53.430;-2.224;2023-05-14T05:19:32;101731.63;;;12.53;69.46
46682;BME280;34101;53.430;-2.224;2023-05-14T05:22:00;101732.82;;;12.59;69.30
46682;BME280;34101;53.430;-2.224;2023-05-14T05:24:28;101730.22;;;12.65;69.17
46682;BME280;34101;53.430;-2.224;2023-05-14T05:26:55;101731.97;;;12.72;69.05
46682;BME280;34101;53.430;-2.224;2023-05-14T05:29:24;101737.30;;;12.80;68.96
46682;BME280;34101;53.430;-2.224;2023-05-14T05:31:51;101738.89;;;12.87;68.88
46682;BME280;34101;53.430;-2.224;2023-05-14T05:34:19;101734.61;;;12.95;68.63
46682;BME280;34101;53.430;-2.224;2023-05-14T05:36:46;101730.42;;;12.95;68.92
46682;BME280;34101;53.430;-2.224;2023-05-14T05:39:13;101730.38;;;13.00;69.06
46682;BME280;34101;53.430;-2.224;2023-05-14T05:41:42;101729.63;;;13.13;68.64
46682;BME280;34101;53.430;-2.224;2023-05-14T05:44:09;101726.31;;;13.21;68.43
46682;BME280;34101;53.430;-2.224;2023-05-14T05:46:37;101725.51;;;13.32;67.94
46682;BME280;34101;53.430;-2.224;2023-05-14T05:49:05;101725.01;;;13.41;67.71
46682;BME280;34101;53.430;-2.224;2023-05-14T05:51:40;101720.50;;;13.50;67.68
46682;BME280;34101;53.430;-2.224;2023-05-14T05:54:08;101716.26;;;13.58;67.50
46682;BME280;34101;53.430;-2.224;2023-05-14T05:56:35;101713.97;;;13.66;67.46
46682;BME280;34101;53.430;-2.224;2023-05-14T05:59:03;101711.93;;;13.71;67.39
46682;BME280;34101;53.430;-2.224;2023-05-14T06:01:30;101711.88;;;13.79;67.30
46682;BME280;34101;53.430;-2.224;2023-05-14T06:04:03;101711.18;;;13.88;66.94
46682;BME280;34101;53.430;-2.224;2023-05-14T06:06:31;101713.31;;;14.00;66.71
46682;BME280;34101;53.430;-2.224;2023-05-14T06:08:58;101715.27;;;14.10;66.55
46682;BME280;34101;53.430;-2.224;2023-05-14T06:11:26;101715.99;;;14.20;66.15
46682;BME280;34101;53.430;-2.224;2023-05-14T06:13:53;101712.57;;;14.20;65.84
46682;BME280;34101;53.430;-2.224;2023-05-14T06:16:21;101709.25;;;14.24;65.72
46682;BME280;34101;53.430;-2.224;2023-05-14T06:18:49;101702.18;;;14.20;65.58
46682;BME280;34101;53.430;-2.224;2023-05-14T06:21:22;101693.50;;;14.28;65.63
46682;BME280;34101;53.430;-2.224;2023-05-14T06:23:51;101690.25;;;14.39;65.43
46682;BME280;34101;53.430;-2.224;2023-05-14T06:26:19;101688.02;;;14.49;64.86
46682;BME280;34101;53.430;-2.224;2023-05-14T06:28:46;101690.13;;;14.61;65.19
46682;BME280;34101;53.430;-2.224;2023-05-14T06:31:14;101686.47;;;14.78;64.96
46682;BME280;34101;53.430;-2.224;2023-05-14T06:33:41;101688.01;;;14.93;64.32
46682;BME280;34101;53.430;-2.224;2023-05-14T06:36:09;101686.70;;;15.02;63.99
46682;BME280;34101;53.430;-2.224;2023-05-14T06:38:37;101692.53;;;15.13;63.73
46682;BME280;34101;53.430;-2.224;2023-05-14T06:41:05;101686.85;;;15.25;63.06
46682;BME280;34101;53.430;-2.224;2023-05-14T06:43:33;101684.83;;;15.35;63.05
46682;BME280;34101;53.430;-2.224;2023-05-14T06:46:01;101682.89;;;15.45;62.56
46682;BME280;34101;53.430;-2.224;2023-05-14T06:48:29;101681.63;;;15.54;62.29
46682;BME280;34101;53.430;-2.224;2023-05-14T06:50:57;101678.96;;;15.55;62.08
46682;BME280;34101;53.430;-2.224;2023-05-14T06:53:25;101676.65;;;15.52;61.78
46682;BME280;34101;53.430;-2.224;2023-05-14T06:55:52;101674.86;;;15.63;61.72
46682;BME280;34101;53.430;-2.224;2023-05-14T06:58:20;101672.68;;;15.73;62.40
46682;BME280;34101;53.430;-2.224;2023-05-14T07:00:48;101673.91;;;15.82;61.29
46682;BME280;34101;53.430;-2.224;2023-05-14T07:03:15;101675.17;;;15.59;61.67
46682;BME280;34101;53.430;-2.224;2023-05-14T07:05:48;101674.94;;;15.80;61.67
46682;BME280;34101;53.430;-2.224;2023-05-14T07:08:20;101668.42;;;16.02;61.03
46682;BME280;34101;53.430;-2.224;2023-05-14T07:10:48;101664.50;;;16.13;60.52
46682;BME280;34101;53.430;-2.224;2023-05-14T07:13:16;101662.79;;;15.84;61.07
46682;BME280;34101;53.430;-2.224;2023-05-14T07:15:43;101662.22;;;16.07;60.92
46682;BME280;34101;53.430;-2.224;2023-05-14T07:18:11;101663.60;;;16.08;60.71
46682;BME280;34101;53.430;-2.224;2023-05-14T07:20:39;101662.25;;;16.18;60.65
46682;BME280;34101;53.430;-2.224;2023-05-14T07:23:06;101664.36;;;16.22;60.61
46682;BME280;34101;53.430;-2.224;2023-05-14T07:25:34;101660.80;;;16.31;60.16
46682;BME280;34101;53.430;-2.224;2023-05-14T07:28:02;101658.19;;;15.91;60.77
46682;BME280;34101;53.430;-2.224;2023-05-14T07:30:29;101660.00;;;16.09;60.81
46682;BME280;34101;53.430;-2.224;2023-05-14T07:32:57;101661.00;;;15.98;61.13
46682;BME280;34101;53.430;-2.224;2023-05-14T07:35:24;101659.89;;;16.29;59.97
46682;BME280;34101;53.430;-2.224;2023-05-14T07:37:52;101657.86;;;16.37;59.93
46682;BME280;34101;53.430;-2.224;2023-05-14T07:40:20;101653.71;;;16.53;59.67
46682;BME280;34101;53.430;-2.224;2023-05-14T07:42:53;101656.07;;;16.62;59.05
46682;BME280;34101;53.430;-2.224;2023-05-14T07:45:21;101646.74;;;16.77;59.10
46682;BME280;34101;53.430;-2.224;2023-05-14T07:47:48;101645.15;;;16.93;58.66
46682;BME280;34101;53.430;-2.224;2023-05-14T07:50:15;101645.37;;;17.44;57.13
46682;BME280;34101;53.430;-2.224;2023-05-14T07:52:43;101641.12;;;18.04;55.83
46682;BME280;34101;53.430;-2.224;2023-05-14T07:55:11;101642.11;;;18.40;54.94
46682;BME280;34101;53.430;-2.224;2023-05-14T07:57:39;101635.15;;;18.50;52.74
46682;BME280;34101;53.430;-2.224;2023-05-14T08:00:09;101632.06;;;18.99;52.06
46682;BME280;34101;53.430;-2.224;2023-05-14T08:02:36;101629.74;;;19.67;50.72
46682;BME280;34101;53.430;-2.224;2023-05-14T08:05:04;101626.73;;;20.23;49.25
46682;BME280;34101;53.430;-2.224;2023-05-14T08:07:34;101626.19;;;20.67;48.17
46682;BME280;34101;53.430;-2.224;2023-05-14T08:10:02;101625.24;;;20.95;47.44
46682;BME280;34101;53.430;-2.224;2023-05-14T08:12:30;101621.77;;;21.17;45.77
46682;BME280;34101;53.430;-2.224;2023-05-14T08:14:57;101620.69;;;20.52;47.75
46682;BME280;34101;53.430;-2.224;2023-05-14T08:17:24;101616.89;;;20.21;48.24
46682;BME280;34101;53.430;-2.224;2023-05-14T08:19:52;101612.61;;;20.80;46.46
46682;BME280;34101;53.430;-2.224;2023-05-14T08:22:20;101610.07;;;21.02;45.96
46682;BME280;34101;53.430;-2.224;2023-05-14T08:24:48;101611.46;;;21.44;45.19
46682;BME280;34101;53.430;-2.224;2023-05-14T08:27:15;101610.57;;;21.77;44.59
46682;BME280;34101;53.430;-2.224;2023-05-14T08:29:43;101608.44;;;21.88;43.92
46682;BME280;34101;53.430;-2.224;2023-05-14T08:32:10;101605.83;;;21.99;43.45
46682;BME280;34101;53.430;-2.224;2023-05-14T08:34:38;101609.21;;;22.19;42.93
46682;BME280;34101;53.430;-2.224;2023-05-14T08:37:10;101609.06;;;22.42;42.46
46682;BME280;34101;53.430;-2.224;2023-05-14T08:39:38;101600.05;;;22.96;41.33
46682;BME280;34101;53.430;-2.224;2023-05-14T08:42:06;101596.49;;;23.05;40.44
46682;BME280;34101;53.430;-2.224;2023-05-14T08:44:38;101597.52;;;22.95;40.62
46682;BME280;34101;53.430;-2.224;2023-05-14T08:47:10;101592.46;;;23.25;39.99
46682;BME280;34101;53.430;-2.224;2023-05-14T08:49:41;101586.68;;;23.84;37.96
46682;BME280;34101;53.430;-2.224;2023-05-14T08:52:09;101583.85;;;23.98;38.57
46682;BME280;34101;53.430;-2.224;2023-05-14T08:54:37;101579.83;;;24.83;36.65
46682;BME280;34101;53.430;-2.224;2023-05-14T08:57:08;101581.27;;;25.25;35.63
46682;BME280;34101;53.430;-2.224;2023-05-14T08:59:36;101575.59;;;25.23;35.34
46682;BME280;34101;53.430;-2.224;2023-05-14T09:02:05;101576.37;;;25.37;35.33
46682;BME280;34101;53.430;-2.224;2023-05-14T09:04:34;101574.86;;;25.44;35.71
46682;BME280;34101;53.430;-2.224;2023-05-14T09:07:02;101575.59;;;25.06;34.01
46682;BME280;34101;53.430;-2.224;2023-05-14T09:09:36;101576.20;;;24.81;35.12
46682;BME280;34101;53.430;-2.224;2023-05-14T09:12:06;101573.12;;;24.77;35.81
46682;BME280;34101;53.430;-2.224;2023-05-14T09:14:34;101572.83;;;24.04;37.32
46682;BME280;34101;53.430;-2.224;2023-05-14T09:17:01;101573.53;;;23.19;37.85
46682;BME280;34101;53.430;-2.224;2023-05-14T09:19:29;101573.61;;;23.06;38.36
46682;BME280;34101;53.430;-2.224;2023-05-14T09:21:57;101573.58;;;22.69;38.93
46682;BME280;34101;53.430;-2.224;2023-05-14T09:24:26;101570.62;;;22.20;39.09
46682;BME280;34101;53.430;-2.224;2023-05-14T09:26:56;101568.79;;;22.16;39.70
46682;BME280;34101;53.430;-2.224;2023-05-14T09:29:23;101562.98;;;21.85;41.03
46682;BME280;34101;53.430;-2.224;2023-05-14T09:31:51;101560.89;;;21.93;39.31
46682;BME280;34101;53.430;-2.224;2023-05-14T09:34:24;101562.59;;;22.16;37.79
46682;BME280;34101;53.430;-2.224;2023-05-14T09:36:55;101560.50;;;22.02;38.40
46682;BME280;34101;53.430;-2.224;2023-05-14T09:39:23;101561.88;;;22.10;37.92
46682;BME280;34101;53.430;-2.224;2023-05-14T09:41:53;101564.73;;;21.94;39.82
46682;BME280;34101;53.430;-2.224;2023-05-14T09:44:20;101565.50;;;22.45;38.70
46682;BME280;34101;53.430;-2.224;2023-05-14T09:46:54;101566.22;;;22.95;38.07
46682;BME280;34101;53.430;-2.224;2023-05-14T09:49:23;101561.02;;;22.95;38.04
46682;BME280;34101;53.430;-2.224;2023-05-14T09:51:51;101556.22;;;23.29;37.01
46682;BME280;34101;53.430;-2.224;2023-05-14T09:54:18;101555.52;;;23.59;36.63
46682;BME280;34101;53.430;-2.224;2023-05-14T09:56:46;101554.34;;;23.81;35.59
46682;BME280;34101;53.430;-2.224;2023-05-14T09:59:15;101551.89;;;23.94;35.21
46682;BME280;34101;53.430;-2.224;2023-05-14T10:01:42;101555.20;;;23.57;36.00
46682;BME280;34101;53.430;-2.224;2023-05-14T10:04:11;101557.58;;;23.44;36.68
46682;BME280;34101;53.430;-2.224;2023-05-14T10:06:39;101552.81;;;23.53;36.70
46682;BME280;34101;53.430;-2.224;2023-05-14T10:09:12;101551.64;;;23.52;37.07
46682;BME280;34101;53.430;-2.224;2023-05-14T10:11:42;101548.07;;;23.86;35.94
46682;BME280;34101;53.430;-2.224;2023-05-14T10:14:16;101547.98;;;24.37;34.69
46682;BME280;34101;53.430;-2.224;2023-05-14T10:16:47;101544.21;;;25.22;32.19
46682;BME280;34101;53.430;-2.224;2023-05-14T10:19:16;101545.06;;;25.32;32.74
46682;BME280;34101;53.430;-2.224;2023-05-14T10:21:47;101543.82;;;25.83;32.29
46682;BME280;34101;53.430;-2.224;2023-05-14T10:24:16;101537.50;;;25.41;31.62
46682;BME280;34101;53.430;-2.224;2023-05-14T10:26:49;101536.24;;;25.22;33.45
46682;BME280;34101;53.430;-2.224;2023-05-14T10:29:16;101533.76;;;24.75;31.71
46682;BME280;34101;53.430;-2.224;2023-05-14T10:31:46;101531.50;;;25.28;30.88
46682;BME280;34101;53.430;-2.224;2023-05-14T10:34:46;101533.59;;;25.61;30.98
46682;BME280;34101;53.430;-2.224;2023-05-14T10:37:15;101533.45;;;26.03;29.81
46682;BME280;34101;53.430;-2.224;2023-05-14T10:39:47;101526.56;;;26.45;28.24
46682;BME280;34101;53.430;-2.224;2023-05-14T10:42:19;101528.98;;;26.21;29.01
46682;BME280;34101;53.430;-2.224;2023-05-14T10:44:50;101523.52;;;27.12;26.42
46682;BME280;34101;53.430;-2.224;2023-05-14T10:47:18;101517.58;;;27.47;26.48
46682;BME280;34101;53.430;-2.224;2023-05-14T10:49:46;101522.14;;;27.11;27.11
46682;BME280;34101;53.430;-2.224;2023-05-14T10:52:16;101517.26;;;27.86;26.08
46682;BME280;34101;53.430;-2.224;2023-05-14T10:54:48;101511.23;;;27.48;26.15
46682;BME280;34101;53.430;-2.224;2023-05-14T10:57:16;101508.04;;;27.87;25.37
46682;BME280;34101;53.430;-2.224;2023-05-14T10:59:46;101506.25;;;28.11;25.12
46682;BME280;34101;53.430;-2.224;2023-05-14T11:02:23;101510.20;;;27.23;24.25
46682;BME280;34101;53.430;-2.224;2023-05-14T11:04:55;101504.86;;;28.35;23.37
46682;BME280;34101;53.430;-2.224;2023-05-14T11:07:28;101508.26;;;27.97;25.05
46682;BME280;34101;53.430;-2.224;2023-05-14T11:10:01;101508.24;;;27.09;26.48
46682;BME280;34101;53.430;-2.224;2023-05-14T11:12:29;101494.36;;;27.76;25.75
46682;BME280;34101;53.430;-2.224;2023-05-14T11:14:58;101507.10;;;26.42;28.45
46682;BME280;34101;53.430;-2.224;2023-05-14T11:17:33;101505.93;;;26.66;28.32
46682;BME280;34101;53.430;-2.224;2023-05-14T11:20:01;101496.33;;;26.97;26.61
46682;BME280;34101;53.430;-2.224;2023-05-14T11:22:29;101496.94;;;26.80;27.78
46682;BME280;34101;53.430;-2.224;2023-05-14T11:24:57;101503.73;;;25.75;28.85
46682;BME280;34101;53.430;-2.224;2023-05-14T11:27:25;101496.64;;;26.03;28.63
46682;BME280;34101;53.430;-2.224;2023-05-14T11:29:52;101494.51;;;25.20;30.95
46682;BME280;34101;53.430;-2.224;2023-05-14T11:32:20;101489.38;;;25.24;30.87
46682;BME280;34101;53.430;-2.224;2023-05-14T11:34:47;101485.87;;;25.04;31.03
46682;BME280;34101;53.430;-2.224;2023-05-14T11:37:15;101488.37;;;25.02;31.88
46682;BME280;34101;53.430;-2.224;2023-05-14T11:39:47;101490.96;;;24.13;30.43
46682;BME280;34101;53.430;-2.224;2023-05-14T11:42:15;101499.32;;;24.00;31.85
46682;BME280;34101;53.430;-2.224;2023-05-14T11:44:48;101498.12;;;24.17;32.63
46682;BME280;34101;53.430;-2.224;2023-05-14T11:47:17;101496.81;;;24.19;31.79
46682;BME280;34101;53.430;-2.224;2023-05-14T11:49:45;101491.82;;;24.48;31.67
46682;BME280;34101;53.430;-2.224;2023-05-14T11:52:14;101483.89;;;24.88;31.40
46682;BME280;34101;53.430;-2.224;2023-05-14T11:54:42;101475.69;;;24.81;30.61
46682;BME280;34101;53.430;-2.224;2023-05-14T11:57:11;101477.40;;;25.06;30.67
46682;BME280;34101;53.430;-2.224;2023-05-14T11:59:45;101478.59;;;24.33;31.90
46682;BME280;34101;53.430;-2.224;2023-05-14T12:02:14;101474.30;;;25.51;30.51
46682;BME280;34101;53.430;-2.224;2023-05-14T12:04:43;101464.50;;;26.42;28.25
46682;BME280;34101;53.430;-2.224;2023-05-14T12:07:14;101462.23;;;27.04;26.70
46682;BME280;34101;53.430;-2.224;2023-05-14T12:09:43;101462.75;;;25.73;26.89
46682;BME280;34101;53.430;-2.224;2023-05-14T12:12:11;101464.00;;;25.68;28.03
46682;BME280;34101;53.430;-2.224;2023-05-14T12:14:40;101461.37;;;25.81;28.00
46682;BME280;34101;53.430;-2.224;2023-05-14T12:17:12;101459.54;;;24.68;28.68
46682;BME280;34101;53.430;-2.224;2023-05-14T12:19:41;101453.07;;;23.91;29.98
46682;BME280;34101;53.430;-2.224;2023-05-14T12:22:09;101452.52;;;23.78;29.91
46682;BME280;34101;53.430;-2.224;2023-05-14T12:24:37;101448.77;;;23.60;30.54
46682;BME280;34101;53.430;-2.224;2023-05-14T12:27:06;101450.49;;;23.20;30.78
46682;BME280;34101;53.430;-2.224;2023-05-14T12:29:36;101445.37;;;23.77;30.80
46682;BME280;34101;53.430;-2.224;2023-05-14T12:32:07;101436.44;;;23.65;31.20
46682;BME280;34101;53.430;-2.224;2023-05-14T12:34:35;101432.54;;;23.14;32.37
46682;BME280;34101;53.430;-2.224;2023-05-14T12:37:03;101436.41;;;23.41;32.90
46682;BME280;34101;53.430;-2.224;2023-05-14T12:39:32;101431.85;;;23.58;33.03
46682;BME280;34101;53.430;-2.224;2023-05-14T12:42:00;101425.01;;;23.55;33.13
46682;BME280;34101;53.430;-2.224;2023-05-14T12:44:32;101419.21;;;23.70;33.19
46682;BME280;34101;53.430;-2.224;2023-05-14T12:47:00;101425.60;;;23.48;33.25
46682;BME280;34101;53.430;-2.224;2023-05-14T12:49:28;101423.51;;;23.18;33.11